createdAt,value
2022-11-28T00:00:38.394Z,85.55
2022-11-28T00:02:41.401Z,90.10
2022-11-28T00:04:43.108Z,98.00
2022-11-28T00:06:48.956Z,97.10
2022-11-28T00:08:50.706Z,96.47
2022-11-28T00:10:52.137Z,92.28
2022-11-28T00:12:53.597Z,89.50
2022-11-28T00:14:55.538Z,91.28
2022-11-28T00:16:57.001Z,87.15
2022-11-28T00:19:00.387Z,95.10
2022-11-28T00:21:08.182Z,95.13
2022-11-28T00:23:09.675Z,103.60
2022-11-28T00:25:11.289Z,99.53
2022-11-28T00:27:12.729Z,96.78
2022-11-28T00:29:14.197Z,87.97
2022-11-28T00:31:19.254Z,82.15
2022-11-28T00:33:20.944Z,82.20
2022-11-28T00:35:22.425Z,98.63
2022-11-28T00:37:23.995Z,85.50
2022-11-28T00:39:25.450Z,89.00
2022-11-28T00:41:29.549Z,85.28
2022-11-28T00:43:31.259Z,86.38
2022-11-28T00:45:32.782Z,85.13
2022-11-28T00:47:34.401Z,84.28
2022-11-28T00:49:35.902Z,78.57
2022-11-28T00:51:38.222Z,80.63
2022-11-28T00:53:42.494Z,77.72
2022-11-28T00:55:43.920Z,70.75
2022-11-28T00:57:46.544Z,70.72
2022-11-28T00:59:47.958Z,70.10
2022-11-28T01:01:49.645Z,76.93
2022-11-28T01:03:53.057Z,77.88
2022-11-28T01:05:54.511Z,77.50
2022-11-28T01:07:55.999Z,78.55
2022-11-28T01:09:57.518Z,73.28
2022-11-28T01:11:59.001Z,75.82
2022-11-28T01:14:01.872Z,79.25
2022-11-28T01:16:03.502Z,83.63
2022-11-28T01:18:04.979Z,73.35
2022-11-28T01:20:08.511Z,75.20
2022-11-28T01:22:10.056Z,73.88
2022-11-28T01:24:11.691Z,80.40
2022-11-28T01:26:19.404Z,78.18
2022-11-28T01:28:21.060Z,81.80
2022-11-28T01:30:22.578Z,81.82
2022-11-28T01:32:24.009Z,81.07
2022-11-28T01:34:25.536Z,77.43
2022-11-28T01:36:27.908Z,75.95
2022-11-28T01:38:29.430Z,80.25
2022-11-28T01:40:30.924Z,84.45
2022-11-28T01:42:32.492Z,71.88
2022-11-28T01:44:33.931Z,84.18
2022-11-28T01:46:36.787Z,78.28
2022-11-28T01:48:41.399Z,78.72
2022-11-28T01:50:46.139Z,70.53
2022-11-28T01:52:51.604Z,78.95
2022-11-28T01:54:57.541Z,83.47
2022-11-28T01:57:01.626Z,78.72
2022-11-28T01:59:07.170Z,78.70
2022-11-28T02:01:09.535Z,72.15
2022-11-28T02:03:15.603Z,78.80
2022-11-28T02:05:19.788Z,88.15
2022-11-28T02:07:21.595Z,81.47
2022-11-28T02:09:23.109Z,84.57
2022-11-28T02:11:43.782Z,73.63
2022-11-28T02:14:04.918Z,73.55
2022-11-28T02:16:27.306Z,69.60
2022-11-28T02:18:50.599Z,74.15
2022-11-28T02:21:18.885Z,64.30
2022-11-28T02:23:48.010Z,62.63
2022-11-28T02:25:58.682Z,63.58
2022-11-28T02:28:00.121Z,67.72
2022-11-28T02:30:06.579Z,62.20
2022-11-28T02:32:31.550Z,66.95
2022-11-28T02:34:54.665Z,62.25
2022-11-28T02:37:13.843Z,62.83
2022-11-28T02:39:28.974Z,65.50
2022-11-28T02:41:40.748Z,64.85
2022-11-28T02:43:51.656Z,63.78
2022-11-28T02:46:10.176Z,60.53
2022-11-28T02:48:24.498Z,70.93
2022-11-28T02:50:32.245Z,70.45
2022-11-28T02:52:37.804Z,71.63
2022-11-28T02:54:41.979Z,75.97
2022-11-28T02:56:49.232Z,73.00
2022-11-28T02:58:51.099Z,72.10
2022-11-28T03:00:53.189Z,73.85
2022-11-28T03:03:30.997Z,74.40
2022-11-28T03:05:35.484Z,64.38
2022-11-28T03:08:10.335Z,61.65
2022-11-28T03:10:44.424Z,69.75
2022-11-28T03:13:06.702Z,69.63
2022-11-28T03:15:11.882Z,67.22
2022-11-28T03:17:20.517Z,66.00
2022-11-28T03:19:29.483Z,55.45
2022-11-28T03:21:45.329Z,70.65
2022-11-28T03:24:00.219Z,70.07
2022-11-28T03:26:40.751Z,62.20
2022-11-28T03:29:31.823Z,65.20
2022-11-28T03:31:45.484Z,63.80
2022-11-28T03:33:51.434Z,72.07
2022-11-28T03:35:59.740Z,62.17
2022-11-28T03:38:06.648Z,65.30
2022-11-28T03:40:14.379Z,65.65
2022-11-28T03:42:39.687Z,65.57
2022-11-28T03:44:47.731Z,66.70
2022-11-28T03:46:50.542Z,58.47
2022-11-28T03:48:56.786Z,67.97
2022-11-28T03:51:18.861Z,63.58
2022-11-28T03:53:26.552Z,61.47
2022-11-28T03:55:35.215Z,60.10
2022-11-28T03:57:48.504Z,64.43
2022-11-28T03:59:53.138Z,66.72
2022-11-28T04:02:29.745Z,65.28
2022-11-28T04:04:39.834Z,58.33
2022-11-28T04:06:53.858Z,61.67
2022-11-28T04:09:07.916Z,60.70
2022-11-28T04:11:16.331Z,64.55
2022-11-28T04:13:36.681Z,55.00
2022-11-28T04:16:00.073Z,60.63
2022-11-28T04:18:26.364Z,58.50
2022-11-28T04:20:43.614Z,62.67
2022-11-28T04:22:51.000Z,67.78
2022-11-28T04:24:55.946Z,72.28
2022-11-28T04:27:04.117Z,57.63
2022-11-28T04:29:10.038Z,62.72
2022-11-28T04:31:12.513Z,60.85
2022-11-28T04:33:17.506Z,65.40
2022-11-28T04:35:32.923Z,59.13
2022-11-28T04:37:37.455Z,54.25
2022-11-28T04:39:42.951Z,65.97
2022-11-28T04:41:57.317Z,65.82
2022-11-28T04:44:27.559Z,67.68
2022-11-28T04:46:35.839Z,61.47
2022-11-28T04:48:37.613Z,62.40
2022-11-28T04:50:50.209Z,64.45
2022-11-28T04:52:57.733Z,58.92
2022-11-28T04:55:16.836Z,61.75
2022-11-28T04:57:25.136Z,64.85
2022-11-28T04:59:27.506Z,67.75
2022-11-28T05:01:31.457Z,65.32
2022-11-28T05:03:33.242Z,64.68
2022-11-28T05:05:46.773Z,58.60
2022-11-28T05:07:48.587Z,63.30
2022-11-28T05:09:50.257Z,68.57
2022-11-28T05:11:51.682Z,67.40
2022-11-28T05:13:53.903Z,66.63
2022-11-28T05:15:55.375Z,67.53
2022-11-28T05:17:57.002Z,67.65
2022-11-28T05:19:58.517Z,78.10
2022-11-28T05:22:00.027Z,65.32
2022-11-28T05:24:01.596Z,73.15
2022-11-28T05:26:11.816Z,68.28
2022-11-28T05:28:13.351Z,76.82
2022-11-28T05:30:15.045Z,77.28
2022-11-28T05:32:16.558Z,72.47
2022-11-28T05:34:18.006Z,106.78
2022-11-28T05:36:19.459Z,77.72
2022-11-28T05:38:20.943Z,74.10
2022-11-28T05:40:22.782Z,74.95
2022-11-28T05:42:25.888Z,75.75
2022-11-28T05:44:27.586Z,64.80
2022-11-28T05:46:29.742Z,69.93
2022-11-28T05:48:31.233Z,69.05
2022-11-28T05:50:35.764Z,62.10
2022-11-28T05:52:41.204Z,59.33
2022-11-28T05:54:42.655Z,64.38
2022-11-28T05:56:44.116Z,78.75
2022-11-28T05:58:45.995Z,78.18
2022-11-28T06:00:47.509Z,100.18
2022-11-28T06:02:49.123Z,69.85
2022-11-28T06:04:50.646Z,62.85
2022-11-28T06:06:52.434Z,83.65
2022-11-28T06:08:54.168Z,69.63
2022-11-28T06:10:57.164Z,71.38
2022-11-28T06:12:58.575Z,68.38
2022-11-28T06:15:00.229Z,97.18
2022-11-28T06:17:01.679Z,104.78
2022-11-28T06:19:05.468Z,76.55
2022-11-28T06:21:08.791Z,338.70
2022-11-28T06:23:10.238Z,127.35
2022-11-28T06:25:11.760Z,357.83
2022-11-28T06:27:13.320Z,127.93
2022-11-28T06:29:14.765Z,70.47
2022-11-28T06:31:22.706Z,73.80
2022-11-28T06:33:24.163Z,76.30
2022-11-28T06:35:25.617Z,91.47
2022-11-28T06:37:28.143Z,94.18
2022-11-28T06:39:29.618Z,74.05
2022-11-28T06:41:31.123Z,94.00
2022-11-28T06:43:33.151Z,78.53
2022-11-28T06:45:35.087Z,76.22
2022-11-28T06:47:36.614Z,76.38
2022-11-28T06:49:38.115Z,91.38
2022-11-28T06:51:41.502Z,208.55
2022-11-28T06:53:43.159Z,72.65
2022-11-28T06:55:45.809Z,79.38
2022-11-28T06:57:47.229Z,94.70
2022-11-28T06:59:49.318Z,94.30
2022-11-28T07:01:50.816Z,75.75
2022-11-28T07:03:54.324Z,69.80
2022-11-28T07:05:55.850Z,76.85
2022-11-28T07:07:58.713Z,75.60
2022-11-28T07:10:00.238Z,72.63
2022-11-28T07:12:01.866Z,75.00
2022-11-28T07:14:03.704Z,71.68
2022-11-28T07:16:05.780Z,71.32
2022-11-28T07:18:07.240Z,83.45
2022-11-28T07:20:09.282Z,71.07
2022-11-28T07:22:14.107Z,71.05
2022-11-28T07:24:17.202Z,69.45
2022-11-28T07:26:20.291Z,70.22
2022-11-28T07:28:23.415Z,70.55
2022-11-28T07:30:34.148Z,72.43
2022-11-28T07:32:43.647Z,68.25
2022-11-28T07:34:50.234Z,81.10
2022-11-28T07:36:51.832Z,70.57
2022-11-28T07:38:56.624Z,68.85
2022-11-28T07:41:06.330Z,66.45
2022-11-28T07:45:11.392Z,76.20
2022-11-28T07:47:17.742Z,72.45
2022-11-28T07:49:19.393Z,60.22
2022-11-28T07:51:26.778Z,182.68
2022-11-28T07:53:28.204Z,80.95
2022-11-28T07:55:29.740Z,67.22
2022-11-28T07:57:37.599Z,66.95
2022-11-28T07:59:49.096Z,87.38
2022-11-28T08:02:02.570Z,58.47
2022-11-28T08:04:23.058Z,64.05
2022-11-28T08:06:47.807Z,58.70
2022-11-28T08:08:51.767Z,54.33
2022-11-28T08:11:15.539Z,56.80
2022-11-28T08:13:22.664Z,55.90
2022-11-28T08:15:51.694Z,64.15
2022-11-28T08:17:53.133Z,93.43
2022-11-28T08:20:08.593Z,147.63
2022-11-28T08:22:29.418Z,96.32
2022-11-28T08:24:34.351Z,61.10
2022-11-28T08:26:51.445Z,56.92
2022-11-28T08:29:11.114Z,55.50
2022-11-28T08:33:40.446Z,50.15
2022-11-28T08:35:45.213Z,53.20
2022-11-28T08:37:47.093Z,52.67
2022-11-28T08:39:51.347Z,54.97
2022-11-28T08:41:57.719Z,48.22
2022-11-28T08:43:59.297Z,43.58
2022-11-28T08:46:01.564Z,78.47
2022-11-28T08:48:10.283Z,59.95
2022-11-28T08:50:11.763Z,85.90
2022-11-28T08:52:13.233Z,46.85
2022-11-28T08:54:15.419Z,71.07
2022-11-28T08:56:16.948Z,47.90
2022-11-28T08:58:24.587Z,43.30
2022-11-28T09:00:35.362Z,38.97
2022-11-28T09:02:43.760Z,43.33
2022-11-28T09:04:45.234Z,46.65
2022-11-28T09:06:46.811Z,45.78
2022-11-28T09:08:49.641Z,45.10
2022-11-28T09:10:51.095Z,63.58
2022-11-28T09:12:59.088Z,58.95
2022-11-28T09:15:09.958Z,50.20
2022-11-28T09:17:11.647Z,46.17
2022-11-28T09:19:13.122Z,99.25
2022-11-28T09:21:15.746Z,74.72
2022-11-28T09:23:17.193Z,50.08
2022-11-28T09:25:22.937Z,41.72
2022-11-28T09:27:37.712Z,43.70
2022-11-28T09:29:53.192Z,45.20
2022-11-28T09:32:05.709Z,37.45
2022-11-28T09:34:07.275Z,36.03
2022-11-28T09:36:11.579Z,32.03
2022-11-28T09:38:13.027Z,36.42
2022-11-28T09:40:36.576Z,42.03
2022-11-28T09:42:44.131Z,41.92
2022-11-28T09:44:50.449Z,33.35
2022-11-28T09:46:56.402Z,30.83
2022-11-28T09:49:03.877Z,32.17
2022-11-28T09:51:24.832Z,44.70
2022-11-28T09:53:59.191Z,107.28
2022-11-28T09:56:15.725Z,41.17
2022-11-28T09:58:36.630Z,35.25
2022-11-28T10:00:47.764Z,29.92
2022-11-28T10:03:06.689Z,41.38
2022-11-28T10:05:20.043Z,34.10
2022-11-28T10:07:55.269Z,31.60
2022-11-28T10:10:34.196Z,35.40
2022-11-28T10:13:00.579Z,28.63
2022-11-28T10:15:20.279Z,28.17
2022-11-28T10:19:55.550Z,29.23
2022-11-28T10:22:01.998Z,30.35
2022-11-28T10:24:13.666Z,43.75
2022-11-28T10:26:36.720Z,39.17
2022-11-28T10:28:41.887Z,31.83
2022-11-28T10:30:48.866Z,41.20
2022-11-28T10:33:07.271Z,27.55
2022-11-28T10:35:44.435Z,28.70
2022-11-28T10:37:46.191Z,27.92
2022-11-28T10:39:48.526Z,20.92
2022-11-28T10:42:15.241Z,40.13
2022-11-28T10:44:24.940Z,30.55
2022-11-28T10:48:52.750Z,41.47
2022-11-28T10:51:21.509Z,25.85
2022-11-28T10:53:37.789Z,31.63
2022-11-28T10:56:16.260Z,32.78
2022-11-28T10:58:32.441Z,38.45
2022-11-28T11:00:35.567Z,46.38
2022-11-28T11:02:54.912Z,34.45
2022-11-28T11:04:56.771Z,32.10
2022-11-28T11:07:19.104Z,26.63
2022-11-28T11:09:22.347Z,29.38
2022-11-28T11:11:32.187Z,30.60
2022-11-28T11:13:53.602Z,38.80
2022-11-28T11:16:05.610Z,31.75
2022-11-28T11:18:22.500Z,38.15
2022-11-28T11:20:31.318Z,25.98
2022-11-28T11:22:32.806Z,37.83
2022-11-28T11:25:03.731Z,34.97
2022-11-28T11:27:14.586Z,39.25
2022-11-28T11:29:28.358Z,44.60
2022-11-28T11:31:32.853Z,49.25
2022-11-28T11:33:49.147Z,49.33
2022-11-28T11:36:05.918Z,73.93
2022-11-28T11:38:22.629Z,45.95
2022-11-28T11:40:32.659Z,47.90
2022-11-28T11:42:52.234Z,36.72
2022-11-28T11:45:45.137Z,29.85
2022-11-28T11:47:48.923Z,34.15
2022-11-28T11:49:50.637Z,31.38
2022-11-28T11:51:57.181Z,41.40
2022-11-28T11:54:16.514Z,30.98
2022-11-28T11:56:19.265Z,31.27
2022-11-28T11:58:42.867Z,26.95
2022-11-28T12:00:52.597Z,30.38
2022-11-28T12:06:12.078Z,39.25
2022-11-28T12:08:47.901Z,26.85
2022-11-28T12:11:10.210Z,23.90
2022-11-28T12:13:23.185Z,66.18
2022-11-28T12:15:46.294Z,56.75
2022-11-28T12:18:12.567Z,84.85
2022-11-28T12:20:28.979Z,190.43
2022-11-28T12:22:30.378Z,181.05
2022-11-28T12:24:46.919Z,56.40
2022-11-28T12:26:54.508Z,100.28
2022-11-28T12:29:17.806Z,53.85
2022-11-28T12:31:49.080Z,60.30
2022-11-28T12:34:13.514Z,47.17
2022-11-28T12:36:28.962Z,30.35
2022-11-28T12:39:06.517Z,33.33
2022-11-28T12:41:38.829Z,36.72
2022-11-28T12:44:14.118Z,127.50
2022-11-28T12:46:30.657Z,33.25
2022-11-28T12:48:47.491Z,36.63
2022-11-28T12:51:02.516Z,37.30
2022-11-28T12:53:15.934Z,37.25
2022-11-28T12:56:06.429Z,60.03
2022-11-28T12:58:22.890Z,63.67
2022-11-28T13:00:31.814Z,55.50
2022-11-28T13:03:10.069Z,121.88
2022-11-28T13:05:40.773Z,43.38
2022-11-28T13:08:01.067Z,31.25
2022-11-28T13:13:10.652Z,36.60
2022-11-28T13:15:49.478Z,66.80
2022-11-28T13:18:31.844Z,26.98
2022-11-28T13:20:48.653Z,40.35
2022-11-28T13:23:14.411Z,37.97
2022-11-28T13:25:44.939Z,59.75
2022-11-28T13:28:16.082Z,64.40
2022-11-28T13:30:23.596Z,101.47
2022-11-28T13:32:43.513Z,81.22
2022-11-28T13:34:46.324Z,37.22
2022-11-28T13:39:24.196Z,54.00
2022-11-28T13:44:25.743Z,54.10
2022-11-28T13:49:13.108Z,32.55
2022-11-28T13:51:28.693Z,41.47
2022-11-28T13:53:32.206Z,45.63
2022-11-28T13:55:46.957Z,62.05
2022-11-28T13:58:00.578Z,77.72
2022-11-28T14:00:25.661Z,93.13
2022-11-28T14:02:30.540Z,44.65
2022-11-28T14:04:44.507Z,77.13
2022-11-28T14:07:07.556Z,49.30
2022-11-28T14:09:15.064Z,47.75
2022-11-28T14:11:34.971Z,58.47
2022-11-28T14:13:52.270Z,54.97
2022-11-28T14:16:09.126Z,51.42
2022-11-28T14:21:05.398Z,58.13
2022-11-28T14:23:27.747Z,34.90
2022-11-28T14:25:33.520Z,51.47
2022-11-28T14:27:38.958Z,58.97
2022-11-28T14:29:41.864Z,80.63
2022-11-28T14:32:00.631Z,57.63
2022-11-28T14:34:38.703Z,54.35
2022-11-28T14:36:42.929Z,63.30
2022-11-28T14:38:45.759Z,55.53
2022-11-28T14:40:52.944Z,110.18
2022-11-28T14:43:23.442Z,199.43
2022-11-28T14:45:43.133Z,110.47
2022-11-28T14:48:27.583Z,93.00
2022-11-28T14:50:30.201Z,99.40
2022-11-28T14:52:42.663Z,144.93
2022-11-28T14:54:44.745Z,154.68
2022-11-28T14:56:46.725Z,144.27
2022-11-28T14:58:49.975Z,162.57
2022-11-28T15:00:56.047Z,86.55
2022-11-28T15:02:58.169Z,66.10
2022-11-28T15:05:02.557Z,85.47
2022-11-28T15:07:14.069Z,124.60
2022-11-28T15:10:04.207Z,145.68
2022-11-28T15:12:28.742Z,130.13
2022-11-28T15:14:32.239Z,146.52
2022-11-28T15:16:34.486Z,135.80
2022-11-28T15:18:36.511Z,95.35
2022-11-28T15:20:43.242Z,100.68
2022-11-28T15:22:45.595Z,236.35
2022-11-28T15:24:51.895Z,241.00
2022-11-28T15:26:57.646Z,540.53
2022-11-28T15:29:19.439Z,339.17
2022-11-28T15:31:23.089Z,356.33
2022-11-28T15:33:26.344Z,106.50
2022-11-28T15:35:28.639Z,233.43
2022-11-28T15:37:35.197Z,234.95
2022-11-28T15:39:41.205Z,237.80
2022-11-28T15:41:45.765Z,181.20
2022-11-28T15:43:47.335Z,255.73
2022-11-28T15:45:50.448Z,165.65
2022-11-28T15:47:52.912Z,188.10
2022-11-28T15:50:09.572Z,166.65
2022-11-28T15:52:18.351Z,150.90
2022-11-28T15:54:43.854Z,130.90
2022-11-28T15:56:58.285Z,145.27
2022-11-28T15:58:59.717Z,218.60
2022-11-28T16:01:25.769Z,178.82
2022-11-28T16:03:32.004Z,191.40
2022-11-28T16:05:33.597Z,247.35
2022-11-28T16:07:40.692Z,230.75
2022-11-28T16:09:53.863Z,177.52
2022-11-28T16:11:55.470Z,154.25
2022-11-28T16:13:59.737Z,141.27
2022-11-28T16:16:04.076Z,136.90
2022-11-28T16:18:07.155Z,143.77
2022-11-28T16:20:27.873Z,121.45
2022-11-28T16:22:36.983Z,147.40
2022-11-28T16:24:47.346Z,154.95
2022-11-28T16:27:01.024Z,136.80
2022-11-28T16:29:13.561Z,132.38
2022-11-28T16:31:21.575Z,121.13
2022-11-28T16:33:43.014Z,135.38
2022-11-28T16:35:44.489Z,180.32
2022-11-28T16:37:45.970Z,195.52
2022-11-28T16:39:47.712Z,131.27
2022-11-28T16:41:54.762Z,127.97
2022-11-28T16:44:11.215Z,137.57
2022-11-28T16:46:30.125Z,131.50
2022-11-28T16:48:35.497Z,72.10
2022-11-28T16:50:37.861Z,85.85
2022-11-28T16:52:48.664Z,110.03
2022-11-28T16:54:58.229Z,150.30
2022-11-28T16:57:11.855Z,99.70
2022-11-28T16:59:15.965Z,157.88
2022-11-28T17:01:17.635Z,129.75
2022-11-28T17:03:42.537Z,120.05
2022-11-28T17:05:44.025Z,122.03
2022-11-28T17:07:46.614Z,182.82
2022-11-28T17:09:49.271Z,114.90
2022-11-28T17:11:58.115Z,102.70
2022-11-28T17:14:02.581Z,92.10
2022-11-28T17:16:04.614Z,113.90
2022-11-28T17:18:06.076Z,261.20
2022-11-28T17:20:08.179Z,398.40
2022-11-28T17:22:43.152Z,280.05
2022-11-28T17:24:45.575Z,191.07
2022-11-28T17:26:47.526Z,129.80
2022-11-28T17:28:49.056Z,140.98
2022-11-28T17:30:50.548Z,143.90
2022-11-28T17:32:52.184Z,150.65
2022-11-28T17:34:53.800Z,108.28
2022-11-28T17:36:55.239Z,126.35
2022-11-28T17:39:00.972Z,111.85
2022-11-28T17:41:05.774Z,96.78
2022-11-28T17:43:13.706Z,98.40
2022-11-28T17:45:15.434Z,97.43
2022-11-28T17:47:16.881Z,106.55
2022-11-28T17:49:19.202Z,104.32
2022-11-28T17:51:20.795Z,125.05
2022-11-28T17:53:22.514Z,210.20
2022-11-28T17:55:24.006Z,244.85
2022-11-28T17:57:25.455Z,185.18
2022-11-28T17:59:27.457Z,144.05
2022-11-28T18:01:30.789Z,158.40
2022-11-28T18:03:32.383Z,150.40
2022-11-28T18:05:37.914Z,111.30
2022-11-28T18:07:39.513Z,101.18
2022-11-28T18:09:41.154Z,110.25
2022-11-28T18:11:43.445Z,136.10
2022-11-28T18:13:46.037Z,131.27
2022-11-28T18:15:47.911Z,165.88
2022-11-28T18:17:49.406Z,118.50
2022-11-28T18:19:55.925Z,101.10
2022-11-28T18:21:58.880Z,114.30
2022-11-28T18:24:00.540Z,115.28
2022-11-28T18:26:06.275Z,87.68
2022-11-28T18:28:07.846Z,83.28
2022-11-28T18:30:09.873Z,82.35
2022-11-28T18:32:11.737Z,83.35
2022-11-28T18:34:13.243Z,83.57
2022-11-28T18:36:21.655Z,92.88
2022-11-28T18:38:23.174Z,145.10
2022-11-28T18:40:24.663Z,125.40
2022-11-28T18:42:26.596Z,176.10
2022-11-28T18:44:28.387Z,212.10
2022-11-28T18:46:30.820Z,163.18
2022-11-28T18:48:33.386Z,149.27
2022-11-28T18:50:35.054Z,140.93
2022-11-28T18:52:36.652Z,154.32
2022-11-28T18:54:38.533Z,150.75
2022-11-28T18:56:40.041Z,149.95
2022-11-28T18:58:44.282Z,135.38
2022-11-28T19:00:45.789Z,117.05
2022-11-28T19:02:47.316Z,92.90
2022-11-28T19:04:48.790Z,107.57
2022-11-28T19:06:50.518Z,112.35
2022-11-28T19:08:57.258Z,100.85
2022-11-28T19:11:03.657Z,125.57
2022-11-28T19:13:05.234Z,85.18
2022-11-28T19:15:07.357Z,80.75
2022-11-28T19:17:09.006Z,76.45
2022-11-28T19:19:11.448Z,81.95
2022-11-28T19:21:15.736Z,95.28
2022-11-28T19:23:17.162Z,147.50
2022-11-28T19:25:18.577Z,139.13
2022-11-28T19:27:20.148Z,136.68
2022-11-28T19:29:21.734Z,122.22
2022-11-28T19:31:29.400Z,217.88
2022-11-28T19:33:30.977Z,209.82
2022-11-28T19:35:33.670Z,156.60
2022-11-28T19:37:35.144Z,130.73
2022-11-28T19:39:36.642Z,96.28
2022-11-28T19:41:38.123Z,160.77
2022-11-28T19:43:40.246Z,172.40
2022-11-28T19:45:41.750Z,227.48
2022-11-28T19:47:43.345Z,187.68
2022-11-28T19:49:44.986Z,160.13
2022-11-28T19:51:48.083Z,183.05
2022-11-28T19:53:49.561Z,160.48
2022-11-28T19:55:51.819Z,125.00
2022-11-28T19:57:53.246Z,110.88
2022-11-28T19:59:54.786Z,147.75
2022-11-28T20:01:56.278Z,400.20
2022-11-28T20:03:59.276Z,133.30
2022-11-28T20:06:01.048Z,120.82
2022-11-28T20:08:02.693Z,141.75
2022-11-28T20:10:04.575Z,121.30
2022-11-28T20:12:06.200Z,135.40
2022-11-28T20:14:11.605Z,113.28
2022-11-28T20:16:16.107Z,133.15
2022-11-28T20:18:17.619Z,116.82
2022-11-28T20:20:19.266Z,137.13
2022-11-28T20:22:22.787Z,118.10
2022-11-28T20:24:24.825Z,124.43
2022-11-28T20:26:27.135Z,111.68
2022-11-28T20:28:31.562Z,129.85
2022-11-28T20:30:36.531Z,174.55
2022-11-28T20:32:37.970Z,282.08
2022-11-28T20:34:39.412Z,194.77
2022-11-28T20:36:41.162Z,151.63
2022-11-28T20:38:42.762Z,193.73
2022-11-28T20:40:44.253Z,166.65
2022-11-28T20:42:45.849Z,142.02
2022-11-28T20:44:47.323Z,153.77
2022-11-28T20:46:50.044Z,128.40
2022-11-28T20:48:51.679Z,120.60
2022-11-28T20:50:53.171Z,103.07
2022-11-28T20:52:54.803Z,145.35
2022-11-28T20:54:56.521Z,150.02
2022-11-28T20:57:20.239Z,230.95
2022-11-28T20:59:19.977Z,229.07
2022-11-28T21:01:24.458Z,148.18
2022-11-28T21:03:26.078Z,109.50
2022-11-28T21:05:27.587Z,119.50
2022-11-28T21:07:31.004Z,124.38
2022-11-28T21:09:32.506Z,116.32
2022-11-28T21:11:56.133Z,117.13
2022-11-28T21:13:56.242Z,120.40
2022-11-28T21:15:58.504Z,121.55
2022-11-28T21:17:59.980Z,144.07
2022-11-28T21:20:01.523Z,165.60
2022-11-28T21:22:02.981Z,223.43
2022-11-28T21:24:07.758Z,252.50
2022-11-28T21:26:15.068Z,152.40
2022-11-28T21:28:16.742Z,154.98
2022-11-28T21:30:18.182Z,147.75
2022-11-28T21:32:20.034Z,137.30
2022-11-28T21:34:22.662Z,142.63
2022-11-28T21:36:25.693Z,190.40
2022-11-28T21:38:27.185Z,132.57
2022-11-28T21:40:28.621Z,137.48
2022-11-28T21:42:30.128Z,130.73
2022-11-28T21:44:31.569Z,159.90
2022-11-28T21:46:33.022Z,155.45
2022-11-28T21:48:35.704Z,154.57
2022-11-28T21:50:37.252Z,139.65
2022-11-28T21:52:38.747Z,145.95
2022-11-28T21:54:40.142Z,133.80
2022-11-28T21:56:41.926Z,114.25
2022-11-28T21:58:43.649Z,145.35
2022-11-28T22:00:53.512Z,175.73
2022-11-28T22:03:01.146Z,167.82
2022-11-28T22:05:05.338Z,156.13
2022-11-28T22:07:07.928Z,160.00
2022-11-28T22:09:10.025Z,155.25
2022-11-28T22:11:13.423Z,165.68
2022-11-28T22:13:15.045Z,171.88
2022-11-28T22:15:16.761Z,164.40
2022-11-28T22:17:18.282Z,172.93
2022-11-28T22:19:19.726Z,158.40
2022-11-28T22:23:43.635Z,150.63
2022-11-28T22:25:52.511Z,132.68
2022-11-28T22:27:53.960Z,111.35
2022-11-28T22:29:55.423Z,150.45
2022-11-28T22:31:56.951Z,154.02
2022-11-28T22:33:58.738Z,204.48
2022-11-28T22:36:10.872Z,140.10
2022-11-28T22:38:13.197Z,174.90
2022-11-28T22:40:15.349Z,250.77
2022-11-28T22:42:16.852Z,251.02
2022-11-28T22:44:18.634Z,179.05
2022-11-28T22:46:20.265Z,173.10
2022-11-28T22:48:21.874Z,162.80
2022-11-28T22:50:23.414Z,174.25
2022-11-28T22:52:24.871Z,122.30
2022-11-28T22:54:26.369Z,166.60
2022-11-28T22:56:29.410Z,154.15
2022-11-28T22:58:36.872Z,142.48
2022-11-28T23:00:42.802Z,143.55
2022-11-28T23:02:44.288Z,154.93
2022-11-28T23:04:46.384Z,105.07
2022-11-28T23:06:47.942Z,172.05
2022-11-28T23:08:50.091Z,274.65
2022-11-28T23:10:52.030Z,244.85
2022-11-28T23:12:53.504Z,197.38
2022-11-28T23:14:55.108Z,167.60
2022-11-28T23:16:56.550Z,143.27
2022-11-28T23:19:01.209Z,164.02
2022-11-28T23:21:02.681Z,155.38
2022-11-28T23:23:04.142Z,154.85
2022-11-28T23:25:06.133Z,126.63
2022-11-28T23:27:07.570Z,149.55
2022-11-28T23:29:09.400Z,123.72
2022-11-28T23:31:22.640Z,135.38
2022-11-28T23:33:24.204Z,125.72
2022-11-28T23:35:25.635Z,116.85
2022-11-28T23:37:27.129Z,110.88
2022-11-28T23:39:28.576Z,90.20
2022-11-28T23:41:30.747Z,132.35
2022-11-28T23:43:32.564Z,131.25
2022-11-28T23:45:34.064Z,137.68
2022-11-28T23:47:35.537Z,117.93
2022-11-28T23:49:36.968Z,153.93
2022-11-28T23:51:40.420Z,124.78
2022-11-28T23:53:42.894Z,151.20
2022-11-28T23:55:44.345Z,160.57
2022-11-28T23:57:45.865Z,162.68
2022-11-28T23:59:47.286Z,158.82
